createdAt,value
2022-12-24T00:02:11.178Z,18.15
2022-12-24T00:05:35.573Z,17.00
2022-12-24T00:08:59.710Z,21.85
2022-12-24T00:12:24.068Z,19.55
2022-12-24T00:15:47.991Z,22.50
2022-12-24T00:19:14.136Z,21.67
2022-12-24T00:22:38.252Z,18.60
2022-12-24T00:26:02.477Z,23.30
2022-12-24T00:29:26.333Z,18.08
2022-12-24T00:32:50.491Z,18.52
2022-12-24T00:36:16.011Z,28.15
2022-12-24T00:39:40.020Z,17.38
2022-12-24T00:43:04.054Z,17.63
2022-12-24T00:46:29.310Z,22.27
2022-12-24T00:49:53.049Z,24.58
2022-12-24T00:53:19.006Z,18.23
2022-12-24T00:56:42.786Z,26.70
2022-12-24T01:00:09.551Z,27.38
2022-12-24T01:03:36.853Z,22.60
2022-12-24T01:07:03.628Z,25.75
2022-12-24T01:10:28.862Z,26.40
2022-12-24T01:13:52.920Z,22.13
2022-12-24T01:17:16.796Z,22.70
2022-12-24T01:20:40.739Z,22.23
2022-12-24T01:24:04.562Z,22.25
2022-12-24T01:27:30.136Z,19.67
2022-12-24T01:30:53.884Z,23.20
2022-12-24T01:34:18.076Z,22.85
2022-12-24T01:37:43.372Z,20.63
2022-12-24T01:41:25.013Z,20.42
2022-12-24T01:44:53.385Z,22.48
2022-12-24T01:48:23.405Z,20.05
2022-12-24T01:51:52.337Z,18.88
2022-12-24T01:55:20.895Z,21.50
2022-12-24T01:58:49.733Z,19.65
2022-12-24T02:02:15.900Z,20.80
2022-12-24T02:09:08.649Z,16.65
2022-12-24T02:12:35.986Z,19.88
2022-12-24T02:16:10.054Z,19.27
2022-12-24T02:20:06.397Z,19.13
2022-12-24T02:23:57.409Z,20.38
2022-12-24T02:27:34.088Z,21.48
2022-12-24T02:31:05.395Z,18.23
2022-12-24T02:34:34.513Z,17.40
2022-12-24T02:38:03.886Z,16.05
2022-12-24T02:41:52.397Z,19.33
2022-12-24T02:45:21.404Z,15.38
2022-12-24T02:48:49.559Z,19.38
2022-12-24T02:52:32.199Z,19.40
2022-12-24T02:56:09.875Z,15.18
2022-12-24T02:59:45.779Z,13.45
2022-12-24T03:03:24.346Z,17.35
2022-12-24T03:06:58.384Z,14.60
2022-12-24T03:10:28.441Z,15.80
2022-12-24T03:13:54.403Z,18.17
2022-12-24T03:17:20.813Z,13.90
2022-12-24T03:20:50.368Z,15.68
2022-12-24T03:24:15.599Z,14.95
2022-12-24T03:27:41.105Z,15.70
2022-12-24T03:31:06.891Z,16.17
2022-12-24T03:34:32.006Z,15.00
2022-12-24T03:37:55.952Z,14.93
2022-12-24T03:41:21.889Z,16.75
2022-12-24T03:44:48.511Z,15.00
2022-12-24T03:48:13.341Z,16.40
2022-12-24T03:51:37.207Z,16.00
2022-12-24T03:55:01.293Z,15.13
2022-12-24T03:58:26.433Z,17.63
2022-12-24T04:01:51.056Z,15.68
2022-12-24T04:05:16.849Z,10.00
2022-12-24T04:08:41.764Z,16.85
2022-12-24T04:12:06.356Z,17.25
2022-12-24T04:15:32.201Z,13.65
2022-12-24T04:18:56.099Z,15.23
2022-12-24T04:22:20.267Z,16.48
2022-12-24T04:25:44.009Z,13.05
2022-12-24T04:29:09.382Z,14.73
2022-12-24T04:32:34.477Z,16.63
2022-12-24T04:35:59.526Z,14.35
2022-12-24T04:39:23.198Z,15.15
2022-12-24T04:42:47.292Z,18.98
2022-12-24T04:46:15.008Z,16.23
2022-12-24T04:49:40.747Z,17.08
2022-12-24T04:53:04.677Z,16.90
2022-12-24T04:56:30.937Z,15.82
2022-12-24T04:59:54.985Z,14.68
2022-12-24T05:03:19.182Z,17.20
2022-12-24T05:06:44.491Z,15.38
2022-12-24T05:10:11.396Z,16.63
2022-12-24T05:13:42.531Z,15.77
2022-12-24T05:17:10.253Z,13.73
2022-12-24T05:20:34.034Z,13.55
2022-12-24T05:24:17.097Z,16.58
2022-12-24T05:27:44.552Z,11.32
2022-12-24T05:31:11.748Z,12.35
2022-12-24T05:34:35.814Z,15.57
2022-12-24T05:38:00.270Z,14.65
2022-12-24T05:41:25.317Z,12.23
2022-12-24T05:44:49.332Z,15.40
2022-12-24T05:48:14.925Z,15.57
2022-12-24T05:51:40.574Z,12.02
2022-12-24T05:55:04.340Z,14.27
2022-12-24T05:58:29.754Z,14.25
2022-12-24T06:01:53.589Z,14.25
2022-12-24T06:05:17.781Z,11.60
2022-12-24T06:08:42.788Z,13.13
2022-12-24T06:12:07.577Z,13.90
2022-12-24T06:15:32.539Z,13.43
2022-12-24T06:18:56.960Z,14.85
2022-12-24T06:22:20.850Z,12.70
2022-12-24T06:25:44.968Z,13.93
2022-12-24T06:29:08.503Z,12.50
2022-12-24T06:32:34.085Z,13.65
2022-12-24T06:35:58.075Z,12.38
2022-12-24T06:39:22.590Z,15.05
2022-12-24T06:42:46.365Z,10.30
2022-12-24T06:46:10.388Z,13.75
2022-12-24T06:49:35.930Z,12.57
2022-12-24T06:53:00.093Z,10.48
2022-12-24T06:56:23.901Z,13.38
2022-12-24T06:59:48.259Z,9.50
2022-12-24T07:03:13.385Z,9.70
2022-12-24T07:06:38.981Z,14.30
2022-12-24T07:10:04.090Z,12.73
2022-12-24T07:13:28.189Z,13.43
2022-12-24T07:16:58.738Z,13.40
2022-12-24T07:20:23.357Z,13.45
2022-12-24T07:23:49.139Z,14.13
2022-12-24T07:27:13.433Z,13.35
2022-12-24T07:30:37.470Z,11.15
2022-12-24T07:34:01.475Z,12.63
2022-12-24T07:37:25.394Z,11.48
2022-12-24T07:40:50.716Z,12.52
2022-12-24T07:44:15.088Z,7.80
2022-12-24T07:47:39.161Z,10.70
2022-12-24T07:51:03.357Z,10.57
2022-12-24T07:54:27.424Z,10.95
2022-12-24T07:57:52.695Z,12.40
2022-12-24T08:01:16.758Z,9.02
2022-12-24T08:04:41.107Z,11.52
2022-12-24T08:08:05.453Z,11.13
2022-12-24T08:11:29.257Z,11.40
2022-12-24T08:14:54.776Z,12.57
2022-12-24T08:18:18.177Z,12.50
2022-12-24T08:21:42.508Z,12.10
2022-12-24T08:25:06.856Z,12.38
2022-12-24T08:28:31.144Z,8.75
2022-12-24T08:31:56.836Z,10.65
2022-12-24T08:35:21.165Z,12.43
2022-12-24T08:38:45.011Z,11.48
2022-12-24T08:42:09.970Z,10.15
2022-12-24T08:45:39.916Z,9.43
2022-12-24T08:49:06.480Z,11.50
2022-12-24T08:52:30.361Z,12.85
2022-12-24T08:55:56.399Z,11.93
2022-12-24T08:59:20.507Z,11.98
2022-12-24T09:02:45.049Z,9.95
2022-12-24T09:06:11.341Z,10.98
2022-12-24T09:09:38.081Z,10.13
2022-12-24T09:13:01.889Z,11.77
2022-12-24T09:16:26.225Z,10.73
2022-12-24T09:19:49.852Z,10.43
2022-12-24T09:23:15.954Z,10.93
2022-12-24T09:26:42.443Z,9.65
2022-12-24T09:30:08.611Z,8.05
2022-12-24T09:33:36.090Z,10.52
2022-12-24T09:37:02.633Z,10.40
2022-12-24T09:44:02.147Z,7.63
2022-12-24T09:47:30.925Z,8.20
2022-12-24T09:51:00.746Z,9.95
2022-12-24T09:54:29.880Z,9.32
2022-12-24T09:57:58.385Z,9.88
2022-12-24T10:01:22.094Z,10.77
2022-12-24T10:04:48.250Z,9.27
2022-12-24T10:08:21.885Z,8.95
2022-12-24T10:11:55.553Z,10.13
2022-12-24T10:15:27.678Z,9.48
2022-12-24T10:22:28.121Z,7.95
2022-12-24T10:26:00.783Z,8.52
2022-12-24T10:29:30.721Z,11.07
2022-12-24T10:32:56.888Z,8.20
2022-12-24T10:36:26.632Z,7.38
2022-12-24T10:39:50.845Z,8.38
2022-12-24T10:43:18.360Z,8.93
2022-12-24T10:46:43.717Z,9.85
2022-12-24T10:50:17.827Z,10.30
2022-12-24T10:53:45.963Z,11.15
2022-12-24T10:57:28.112Z,10.70
2022-12-24T11:00:53.784Z,9.68
2022-12-24T11:04:19.877Z,9.23
2022-12-24T11:11:24.811Z,10.05
2022-12-24T11:14:48.827Z,9.40
2022-12-24T11:18:16.496Z,8.50
2022-12-24T11:21:42.426Z,6.70
2022-12-24T11:25:20.062Z,10.10
2022-12-24T11:28:44.343Z,10.38
2022-12-24T11:32:18.979Z,10.10
2022-12-24T11:35:47.961Z,11.48
2022-12-24T11:39:21.595Z,10.68
2022-12-24T11:42:47.659Z,10.57
2022-12-24T11:46:16.148Z,11.77
2022-12-24T11:49:40.474Z,10.00
2022-12-24T11:53:09.497Z,10.13
2022-12-24T11:56:42.485Z,9.40
2022-12-24T12:00:12.643Z,9.95
2022-12-24T12:03:42.778Z,11.52
2022-12-24T12:07:15.220Z,10.63
2022-12-24T12:10:42.119Z,11.27
2022-12-24T12:14:06.979Z,9.80
2022-12-24T12:17:36.844Z,8.80
2022-12-24T12:21:06.358Z,11.60
2022-12-24T12:24:36.356Z,11.13
2022-12-24T12:28:03.843Z,12.07
2022-12-24T12:31:31.756Z,10.80
2022-12-24T12:35:05.867Z,11.27
2022-12-24T12:38:30.902Z,10.80
2022-12-24T12:42:05.081Z,12.27
2022-12-24T12:45:44.667Z,12.73
2022-12-24T12:49:21.458Z,11.52
2022-12-24T12:53:14.224Z,11.55
2022-12-24T12:56:43.617Z,11.18
2022-12-24T13:00:11.266Z,10.80
2022-12-24T13:04:10.395Z,11.20
2022-12-24T13:08:14.356Z,13.57
2022-12-24T13:15:35.290Z,10.88
2022-12-24T13:19:14.747Z,12.20
2022-12-24T13:22:39.049Z,15.23
2022-12-24T13:26:13.604Z,19.83
2022-12-24T13:29:54.827Z,40.95
2022-12-24T13:33:49.712Z,13.38
2022-12-24T13:37:23.558Z,15.00
2022-12-24T13:40:47.311Z,11.75
2022-12-24T13:44:22.054Z,17.17
2022-12-24T13:47:45.969Z,12.65
2022-12-24T13:51:25.349Z,12.27
2022-12-24T13:55:02.366Z,17.38
2022-12-24T13:58:27.363Z,16.65
2022-12-24T14:01:52.927Z,17.60
2022-12-24T14:05:22.747Z,13.90
2022-12-24T14:08:49.080Z,15.35
2022-12-24T14:12:32.039Z,13.32
2022-12-24T14:16:06.484Z,12.95
2022-12-24T14:19:42.723Z,14.77
2022-12-24T14:23:08.265Z,17.92
2022-12-24T14:26:35.690Z,21.98
2022-12-24T14:30:04.871Z,22.67
2022-12-24T14:33:32.304Z,17.75
2022-12-24T14:36:58.824Z,18.85
2022-12-24T14:40:29.368Z,15.80
2022-12-24T14:44:01.488Z,18.55
2022-12-24T14:51:11.452Z,18.23
2022-12-24T14:54:40.220Z,17.42
2022-12-24T14:58:27.227Z,14.88
2022-12-24T15:01:51.747Z,13.60
2022-12-24T15:05:20.084Z,17.35
2022-12-24T15:08:50.285Z,19.50
2022-12-24T15:12:15.587Z,24.27
2022-12-24T15:15:46.947Z,18.88
2022-12-24T15:19:23.974Z,22.60
2022-12-24T15:22:52.689Z,20.00
2022-12-24T15:26:26.131Z,24.65
2022-12-24T15:29:53.685Z,19.65
2022-12-24T15:33:18.542Z,25.10
2022-12-24T15:36:42.786Z,31.25
2022-12-24T15:40:11.270Z,22.33
2022-12-24T15:43:40.126Z,22.00
2022-12-24T15:47:10.354Z,18.30
2022-12-24T15:50:36.488Z,19.35
2022-12-24T15:54:05.155Z,21.02
2022-12-24T15:57:33.173Z,21.95
2022-12-24T16:01:04.767Z,21.88
2022-12-24T16:04:30.530Z,21.05
2022-12-24T16:08:24.857Z,21.05
2022-12-24T16:11:48.900Z,20.88
2022-12-24T16:15:16.262Z,18.92
2022-12-24T16:18:53.240Z,24.52
2022-12-24T16:22:35.427Z,17.10
2022-12-24T16:26:00.541Z,17.25
2022-12-24T16:29:27.755Z,20.20
2022-12-24T16:32:52.310Z,16.80
2022-12-24T16:36:16.193Z,18.75
2022-12-24T16:39:45.714Z,17.15
2022-12-24T16:43:26.845Z,17.42
2022-12-24T16:46:50.901Z,17.50
2022-12-24T16:50:20.049Z,16.75
2022-12-24T16:53:44.140Z,16.35
2022-12-24T16:57:10.312Z,17.40
2022-12-24T17:00:36.458Z,16.63
2022-12-24T17:04:00.624Z,18.30
2022-12-24T17:07:24.483Z,17.70
2022-12-24T17:10:54.227Z,18.13
2022-12-24T17:14:20.763Z,17.70
2022-12-24T17:17:44.979Z,17.05
2022-12-24T17:21:11.002Z,17.05
2022-12-24T17:24:34.923Z,19.17
2022-12-24T17:27:59.052Z,17.25
2022-12-24T17:31:28.448Z,18.58
2022-12-24T17:34:52.768Z,14.85
2022-12-24T17:38:17.090Z,13.75
2022-12-24T17:41:41.553Z,15.98
2022-12-24T17:45:06.097Z,14.30
2022-12-24T17:48:31.811Z,15.55
2022-12-24T17:51:58.007Z,15.02
2022-12-24T17:55:25.502Z,14.18
2022-12-24T17:58:49.420Z,14.18
2022-12-24T18:02:17.331Z,14.50
2022-12-24T18:05:44.641Z,15.68
2022-12-24T18:09:08.574Z,16.88
2022-12-24T18:12:32.753Z,15.70
2022-12-24T18:15:57.049Z,16.05
2022-12-24T18:19:20.977Z,17.58
2022-12-24T18:22:46.606Z,13.98
2022-12-24T18:26:11.243Z,14.60
2022-12-24T18:29:40.142Z,14.70
2022-12-24T18:33:04.198Z,15.02
2022-12-24T18:36:28.536Z,15.50
2022-12-24T18:39:53.702Z,16.35
2022-12-24T18:43:18.114Z,12.57
2022-12-24T18:46:42.385Z,15.93
2022-12-24T18:50:07.654Z,12.77
2022-12-24T18:53:32.772Z,14.52
2022-12-24T18:56:58.412Z,14.55
2022-12-24T19:00:22.563Z,15.65
2022-12-24T19:03:47.228Z,13.05
2022-12-24T19:07:11.054Z,14.70
2022-12-24T19:10:35.025Z,15.38
2022-12-24T19:14:00.659Z,17.75
2022-12-24T19:17:25.116Z,15.55
2022-12-24T19:20:50.768Z,13.68
2022-12-24T19:24:15.715Z,12.52
2022-12-24T19:27:39.396Z,14.55
2022-12-24T19:31:06.964Z,13.07
2022-12-24T19:34:30.972Z,12.55
2022-12-24T19:37:55.024Z,14.23
2022-12-24T19:41:21.887Z,13.43
2022-12-24T19:44:46.301Z,13.43
2022-12-24T19:48:11.812Z,13.95
2022-12-24T19:51:36.752Z,14.00
2022-12-24T19:55:00.713Z,14.25
2022-12-24T19:58:25.288Z,14.65
2022-12-24T20:01:49.145Z,14.20
2022-12-24T20:05:14.574Z,13.77
2022-12-24T20:08:39.357Z,14.25
2022-12-24T20:12:03.252Z,15.90
2022-12-24T20:15:27.111Z,15.55
2022-12-24T20:18:55.355Z,13.85
2022-12-24T20:22:20.706Z,16.63
2022-12-24T20:25:44.940Z,14.50
2022-12-24T20:29:11.240Z,14.25
2022-12-24T20:32:35.570Z,15.00
2022-12-24T20:36:02.934Z,16.33
2022-12-24T20:39:30.609Z,14.60
2022-12-24T20:42:55.099Z,15.85
2022-12-24T20:46:20.292Z,14.90
2022-12-24T20:49:44.213Z,13.40
2022-12-24T20:53:08.346Z,16.52
2022-12-24T20:56:33.105Z,16.50
2022-12-24T20:59:57.225Z,14.73
2022-12-24T21:03:21.366Z,14.55
2022-12-24T21:06:46.399Z,15.80
2022-12-24T21:10:11.083Z,15.95
2022-12-24T21:13:36.341Z,15.25
2022-12-24T21:17:00.571Z,15.93
2022-12-24T21:20:30.210Z,14.57
2022-12-24T21:23:54.582Z,14.77
2022-12-24T21:27:20.180Z,14.88
2022-12-24T21:30:45.659Z,15.68
2022-12-24T21:34:09.653Z,15.15
2022-12-24T21:37:33.399Z,17.17
2022-12-24T21:41:02.159Z,16.58
2022-12-24T21:44:28.534Z,17.95
2022-12-24T21:47:54.658Z,14.50
2022-12-24T21:51:17.617Z,16.60
2022-12-24T21:54:41.729Z,13.77
2022-12-24T21:58:05.700Z,16.33
2022-12-24T22:01:30.063Z,17.75
2022-12-24T22:04:55.778Z,13.63
2022-12-24T22:08:37.131Z,14.25
2022-12-24T22:12:01.147Z,14.50
2022-12-24T22:15:25.481Z,13.85
2022-12-24T22:18:49.239Z,15.48
2022-12-24T22:22:15.379Z,14.50
2022-12-24T22:25:39.713Z,14.98
2022-12-24T22:29:06.356Z,16.55
2022-12-24T22:35:54.157Z,16.08
2022-12-24T22:39:19.236Z,13.55
2022-12-24T22:42:43.391Z,14.45
2022-12-24T22:46:08.110Z,15.52
2022-12-24T22:49:32.516Z,15.10
2022-12-24T22:52:56.286Z,15.27
2022-12-24T22:56:23.757Z,14.85
2022-12-24T22:59:47.901Z,14.63
2022-12-24T23:03:12.640Z,14.25
2022-12-24T23:06:37.417Z,16.48
2022-12-24T23:10:01.521Z,16.23
2022-12-24T23:13:44.325Z,14.52
2022-12-24T23:17:10.238Z,16.55
2022-12-24T23:20:33.977Z,16.60
2022-12-24T23:23:58.967Z,15.43
2022-12-24T23:27:22.791Z,17.63
2022-12-24T23:30:58.730Z,14.32
2022-12-24T23:34:22.702Z,16.23
2022-12-24T23:37:47.206Z,14.00
2022-12-24T23:41:12.576Z,16.65
2022-12-24T23:44:39.048Z,15.38
2022-12-24T23:48:04.740Z,14.90
2022-12-24T23:51:30.006Z,16.88
2022-12-24T23:54:54.090Z,15.70
2022-12-24T23:58:18.256Z,16.75
